Airfield :
LOGIN :

Register | Disclaimer

   EN    FR    IT 

 










Legend :    VFR   Marginal VFR   IFR   Intensive IFR   Very Intensive IFR
Visi :
Ceiling :
>= 8 km
>= 3000ft
5 to 8 km
1000 to 3000 ft
1500m to 5 km
500 to 1000 ft
800 to 1500m
200 to 500 ft
< 800m
< 200 ft
Symbols :   Thunderstorms  Fog  Heavy snow  Heavy precipitations  Wind > 20 kt
SIGMETs :     Misc.  Thunderstorms  Icing  Turbulence  Mountain Waves  Volcanic Ashes






- Airport Elevation : 796 ft
- IATA code : SYT


LFLN - Saint-Yan

CURRENT METAR :
  • 280730Z AUTO 24009KT 200V280 8000 -DZ BKN010 BKN017 OVC043 10/10 Q1014 TEMPO RA BECMG 26015G28KT

EXPIRED METARs :
  • 280700Z AUTO 24009KT 200V270 7000 -RADZ BKN008 BKN030 BKN043 10/09 Q1014 TEMPO RA BKN012 BECMG 26015G28KT
  • 280630Z AUTO 25010KT 9999 BKN010 BKN014 BKN021 11/09 Q1014 TEMPO RA BECMG 26015G28KT
  • 280600Z AUTO 23006KT 190V260 9999 BKN020 OVC026 11/09 Q1013 TEMPO RA BKN012 BECMG 26015G28KT
  • 280530Z AUTO 24008KT 210V270 9999 SCT022 BKN027 BKN041 11/09 Q1013
  • 280500Z AUTO 24009KT 200V270 9999 SCT018 SCT041 BKN049 11/09 Q1013

TAF TAF LFLN
Valid from the 28 at 06:00 until the 28 at 15:00 UTC


280500Z 2806/2815 26015G28KT 9999 BKN025
TEMPO 2806/2812 RA BKN012
TEMPO 2812/2815 BKN012



MET'MAP, your aeronautical weather chart ! - Copyright ORBIFLY December 2007 - Disclaimer

ORBIFLY MET'MAP TEAM :

Programming & Development : Alexandra Zaïnal
Concept & original design : Baudouin d'Aumeries
Assistance for programming : Marc-Olivier Méhu
Technical & hardware support : Manuel Goepfert

Contact : metmap@orbifly.com




SOURCES & CREDITS :

   NOAA